Port Columbus International

Airport
ICAO code: 
KCMH
Summary
ICAO Region: 
NAM
Territory: 
Location: 
Columbus, Ohio,
Coordinates: 
Aerial View: 
39° 59' 54.491" N, 82° 53' 32.91" W
Airport LOS: 
Parallel Runway Operation
Metar
Observation
KCMH 160951Z 07006KT 10SM CLR M08/M14 A3009 RMK AO2 SLP200 T10831144 $
Station
Columbus, Port Columbus International Airport
Date/Time
2022-01-16 09:51:00
Wind direction
70°
Wind speed
06 kts
Lowest cloud amount
n/a
Temperature
-8.3°C
Dew point
-14.4°C
Humidity
61%
Weather condition
n/a

Description

Port Columbus International Airport, commonly shortened to Port Columbus, is an international airport located 10 km east of downtown Columbus, Ohio, USA.

Climatology

Humid “subtropical” climate (Köppen climate classification Cfa) - characterized by hot, humid summers and cool winters. Significant amounts of precipitation occur in all seasons in most areas. Winter rainfall (and sometimes snowfall) is associated with large storms that the westerlies steer from west to east. Most summer rainfall occurs during thunderstorms.

Runways

Designator Length Width Surface Rops
10L/28R 2438 46 ASP Yes/Yes
10R/28L 3086 46 ASP Yes/Yes
Airport map: 
Aerial View: 

SKYbrary Partners:

Safety knowledge contributed by: